Time;durP1;ratioP1;P1;durP2;ratioP2;P2;SDS_P1;SDS_P2;PMS_P1;PMS_P2;Temp;Humidity;BMP_temperature;BMP_pressure;BME280_temperature;BME280_humidity;BME280_pressure;Samples;Min_cycle;Max_cycle;Signal;HPM_P1;HPM_P2
2022/10/20 00:01:10;;;;;;;0.30;0.10;;;;;;;;;;4195583;28;20068;-48
2022/10/20 00:03:11;;;;;;;0.20;0.10;;;;;;;;;;4194103;28;20500;-49
2022/10/20 00:05:13;;;;;;;0.20;0.10;;;;;;;;;;4194939;28;20052;-51
2022/10/20 00:07:14;;;;;;;0.50;0.20;;;;;;;;;;4185284;28;20114;-48
2022/10/20 00:09:15;;;;;;;0.10;0.00;;;;;;;;;;4195170;28;20151;-49
2022/10/20 00:11:18;;;;;;;0.10;0.10;;;;;;;;;;4187215;28;20115;-48
2022/10/20 00:13:19;;;;;;;0.40;0.10;;;;;;;;;;4181874;28;20106;-48
2022/10/20 00:15:20;;;;;;;0.20;0.10;;;;;;;;;;4193708;28;20086;-49
2022/10/20 00:17:22;;;;;;;0.30;0.10;;;;;;;;;;4195246;28;20056;-51
2022/10/20 00:19:23;;;;;;;0.20;0.10;;;;;;;;;;4194654;28;20052;-49
2022/10/20 00:21:26;;;;;;;0.17;0.10;;;;;;;;;;4195273;28;20053;-45
2022/10/20 00:23:27;;;;;;;0.10;0.10;;;;;;;;;;4194630;28;20057;-49
2022/10/20 00:25:29;;;;;;;0.32;0.17;;;;;;;;;;4186797;28;20048;-48
2022/10/20 00:27:30;;;;;;;0.30;0.20;;;;;;;;;;4188437;28;20550;-48
2022/10/20 00:29:31;;;;;;;0.13;0.10;;;;;;;;;;4191865;28;20052;-49
2022/10/20 00:31:33;;;;;;;0.38;0.20;;;;;;;;;;4195141;28;20129;-48
2022/10/20 00:33:35;;;;;;;0.80;0.10;;;;;;;;;;4194938;28;20126;-47
2022/10/20 00:35:37;;;;;;;0.20;0.10;;;;;;;;;;4188913;28;20049;-48
2022/10/20 00:37:39;;;;;;;0.10;0.10;;;;;;;;;;4191969;28;20048;-48
2022/10/20 00:39:41;;;;;;;0.17;0.17;;;;;;;;;;4195029;28;20403;-48
2022/10/20 00:41:42;;;;;;;0.68;0.28;;;;;;;;;;4194733;28;20118;-51
2022/10/20 00:43:45;;;;;;;0.30;0.20;;;;;;;;;;4189546;28;20056;-48
2022/10/20 00:45:53;;;;;;;0.10;0.10;;;;;;;;;;4186410;28;20053;-48
2022/10/20 00:47:57;;;;;;;0.20;0.10;;;;;;;;;;4193343;28;20048;-49
2022/10/20 00:50:05;;;;;;;0.20;0.10;;;;;;;;;;4197545;28;20139;-48
2022/10/20 00:52:07;;;;;;;0.08;0.08;;;;;;;;;;4198261;28;20053;-50
2022/10/20 00:54:11;;;;;;;0.20;0.10;;;;;;;;;;4188430;28;20459;-51
2022/10/20 00:56:13;;;;;;;0.10;0.10;;;;;;;;;;4197071;28;20052;-49
2022/10/20 00:58:14;;;;;;;0.10;0.10;;;;;;;;;;4198042;28;20048;-49
2022/10/20 01:00:16;;;;;;;0.20;0.10;;;;;;;;;;4197993;28;20512;-45
2022/10/20 01:02:17;;;;;;;0.30;0.10;;;;;;;;;;4198119;28;20419;-46
2022/10/20 01:04:19;;;;;;;0.10;0.10;;;;;;;;;;4197299;28;20369;-51
2022/10/20 01:06:21;;;;;;;0.00;0.00;;;;;;;;;;4187817;28;20056;-51
2022/10/20 01:08:23;;;;;;;1.20;0.15;;;;;;;;;;4196760;28;20465;-48
2022/10/20 01:10:25;;;;;;;0.10;0.10;;;;;;;;;;4197716;28;20491;-48
2022/10/20 01:12:32;;;;;;;0.10;0.10;;;;;;;;;;4193486;28;20059;-47
2022/10/20 01:14:40;;;;;;;0.30;0.10;;;;;;;;;;4196519;28;20099;-48
2022/10/20 01:16:46;;;;;;;0.15;0.10;;;;;;;;;;4180175;28;20083;-49
2022/10/20 01:18:53;;;;;;;0.10;0.10;;;;;;;;;;4188501;28;20442;-48
2022/10/20 01:21:20;;;;;;;0.13;0.10;;;;;;;;;;4196108;28;20063;-47
2022/10/20 01:23:39;;;;;;;0.50;0.20;;;;;;;;;;4188595;28;20082;-49
2022/10/20 01:26:24;;;;;;;0.20;0.20;;;;;;;;;;4198000;28;20461;-51
2022/10/20 01:28:34;;;;;;;0.22;0.10;;;;;;;;;;4197553;28;20083;-45
2022/10/20 01:30:43;;;;;;;0.10;0.10;;;;;;;;;;4196174;28;20503;-46
2022/10/20 01:33:06;;;;;;;0.40;0.20;;;;;;;;;;4196386;28;20053;-45
2022/10/20 01:35:16;;;;;;;0.00;0.00;;;;;;;;;;4202548;28;20106;-45
2022/10/20 01:37:24;;;;;;;;;;;;;;;;;;4197832;28;20049;-45
2022/10/20 01:39:35;;;;;;;0.20;0.20;;;;;;;;;;4197726;28;19924;-48
2022/10/20 01:41:40;;;;;;;0.10;0.10;;;;;;;;;;4197817;28;20067;-49
2022/10/20 01:43:44;;;;;;;0.13;0.10;;;;;;;;;;4197420;28;20495;-49
2022/10/20 01:45:47;;;;;;;0.20;0.10;;;;;;;;;;4194418;28;20117;-49
2022/10/20 01:47:50;;;;;;;0.15;0.10;;;;;;;;;;4195820;28;20048;-50
2022/10/20 01:49:52;;;;;;;0.10;0.10;;;;;;;;;;4196800;28;20454;-49
2022/10/20 01:51:54;;;;;;;0.10;0.10;;;;;;;;;;4196253;28;20110;-48
2022/10/20 01:53:55;;;;;;;0.10;0.10;;;;;;;;;;4195758;28;20122;-48
2022/10/20 01:55:58;;;;;;;0.10;0.10;;;;;;;;;;4197042;28;20052;-48
2022/10/20 01:58:20;;;;;;;0.20;0.20;;;;;;;;;;4196111;28;20055;-48
2022/10/20 02:00:21;;;;;;;0.60;0.28;;;;;;;;;;4196797;28;20095;-48
2022/10/20 02:02:41;;;;;;;0.05;0.05;;;;;;;;;;4197075;28;20052;-50
2022/10/20 02:05:04;;;;;;;0.20;0.20;;;;;;;;;;4196558;28;20342;-48
2022/10/20 02:07:16;;;;;;;0.10;0.10;;;;;;;;;;4196659;28;20098;-46
2022/10/20 02:09:22;;;;;;;0.65;0.20;;;;;;;;;;4183953;28;20057;-48
2022/10/20 02:11:41;;;;;;;0.25;0.10;;;;;;;;;;4194514;28;20048;-49
2022/10/20 02:13:43;;;;;;;0.08;0.08;;;;;;;;;;4194732;28;20406;-48
2022/10/20 02:15:50;;;;;;;0.10;0.10;;;;;;;;;;4195381;28;20075;-46
2022/10/20 02:17:56;;;;;;;0.10;0.10;;;;;;;;;;4178896;28;20524;-48
2022/10/20 02:19:58;;;;;;;0.40;0.30;;;;;;;;;;4192355;28;20216;-47
2022/10/20 02:22:00;;;;;;;0.30;0.10;;;;;;;;;;4196800;28;20086;-48
2022/10/20 02:24:04;;;;;;;0.10;0.10;;;;;;;;;;4196790;28;20512;-48
2022/10/20 02:26:06;;;;;;;0.10;0.10;;;;;;;;;;4195394;28;20052;-46
2022/10/20 02:28:11;;;;;;;0.50;0.15;;;;;;;;;;4192420;28;20053;-48
2022/10/20 02:30:15;;;;;;;0.28;0.22;;;;;;;;;;4193744;28;20538;-48
2022/10/20 02:32:17;;;;;;;0.50;0.20;;;;;;;;;;4195373;28;20063;-46
2022/10/20 02:34:18;;;;;;;0.38;0.20;;;;;;;;;;4194515;28;20061;-46
2022/10/20 02:36:25;;;;;;;0.20;0.10;;;;;;;;;;4196652;28;20072;-48
2022/10/20 02:38:26;;;;;;;0.28;0.17;;;;;;;;;;4196579;28;20125;-46
2022/10/20 02:40:27;;;;;;;0.20;0.13;;;;;;;;;;4196474;28;20052;-47
2022/10/20 02:42:29;;;;;;;0.10;0.10;;;;;;;;;;4196358;28;20060;-47
2022/10/20 02:44:31;;;;;;;0.00;0.00;;;;;;;;;;4196562;28;20053;-49
2022/10/20 02:46:32;;;;;;;0.10;0.10;;;;;;;;;;4196068;28;20056;-48
2022/10/20 02:48:33;;;;;;;0.10;0.10;;;;;;;;;;4196471;28;20044;-49
2022/10/20 02:50:35;;;;;;;0.20;0.10;;;;;;;;;;4194902;28;20397;-48
2022/10/20 02:52:37;;;;;;;0.52;0.10;;;;;;;;;;4178562;28;20142;-48
2022/10/20 02:54:38;;;;;;;0.10;0.10;;;;;;;;;;4194574;28;20463;-45
2022/10/20 02:56:39;;;;;;;0.52;0.20;;;;;;;;;;4193264;28;20053;-45
2022/10/20 02:58:41;;;;;;;0.10;0.10;;;;;;;;;;4196247;28;20133;-46
2022/10/20 03:00:42;;;;;;;0.22;0.10;;;;;;;;;;4194891;28;20052;-48
2022/10/20 03:02:44;;;;;;;0.20;0.10;;;;;;;;;;4191316;28;20245;-46
2022/10/20 03:04:45;;;;;;;0.10;0.10;;;;;;;;;;4195411;28;20452;-45
2022/10/20 03:06:46;;;;;;;0.20;0.10;;;;;;;;;;4195132;28;20110;-48
2022/10/20 03:08:47;;;;;;;0.43;0.15;;;;;;;;;;4196006;28;20094;-48
2022/10/20 03:10:49;;;;;;;0.05;0.05;;;;;;;;;;4195720;28;20586;-47
2022/10/20 03:12:50;;;;;;;0.10;0.10;;;;;;;;;;4182364;28;20130;-48
2022/10/20 03:14:51;;;;;;;0.10;0.10;;;;;;;;;;4190297;28;20067;-47
2022/10/20 03:16:53;;;;;;;0.20;0.10;;;;;;;;;;4179471;28;20045;-50
2022/10/20 03:18:54;;;;;;;0.10;0.03;;;;;;;;;;4177751;28;20060;-47
2022/10/20 03:20:55;;;;;;;0.30;0.15;;;;;;;;;;4191892;28;20106;-48
2022/10/20 03:22:56;;;;;;;0.20;0.10;;;;;;;;;;4184295;28;20075;-45
2022/10/20 03:24:57;;;;;;;0.10;0.10;;;;;;;;;;4187980;28;20412;-48
2022/10/20 03:26:59;;;;;;;0.15;0.15;;;;;;;;;;4179332;28;20469;-49
2022/10/20 03:29:00;;;;;;;0.00;0.00;;;;;;;;;;4191928;28;20110;-48
2022/10/20 03:31:01;;;;;;;0.28;0.08;;;;;;;;;;4192617;28;20087;-46
2022/10/20 03:33:03;;;;;;;0.10;0.10;;;;;;;;;;4184933;28;20063;-46
2022/10/20 03:35:04;;;;;;;0.10;0.10;;;;;;;;;;4195441;28;20102;-49
2022/10/20 03:37:05;;;;;;;0.38;0.20;;;;;;;;;;4181232;28;20317;-46
2022/10/20 03:39:06;;;;;;;0.17;0.13;;;;;;;;;;4178886;28;20107;-45
2022/10/20 03:41:09;;;;;;;0.00;0.00;;;;;;;;;;4179408;28;20056;-48
2022/10/20 03:43:10;;;;;;;0.00;0.00;;;;;;;;;;4188496;28;20087;-47
2022/10/20 03:45:11;;;;;;;0.13;0.10;;;;;;;;;;4183429;28;20049;-48
2022/10/20 03:47:13;;;;;;;0.10;0.10;;;;;;;;;;4178739;28;20049;-46
2022/10/20 03:49:14;;;;;;;0.32;0.10;;;;;;;;;;4179022;28;20057;-47
2022/10/20 03:51:16;;;;;;;0.05;0.05;;;;;;;;;;4179126;28;20057;-46
2022/10/20 03:53:17;;;;;;;0.10;0.10;;;;;;;;;;4189317;28;20336;-49
2022/10/20 03:55:19;;;;;;;0.10;0.10;;;;;;;;;;4193099;28;20087;-51
2022/10/20 03:57:20;;;;;;;0.00;0.00;;;;;;;;;;4179276;28;20113;-47
2022/10/20 03:59:22;;;;;;;0.10;0.10;;;;;;;;;;4181353;28;20053;-47
2022/10/20 04:01:27;;;;;;;0.40;0.10;;;;;;;;;;4185224;28;20053;-48
2022/10/20 04:03:29;;;;;;;0.25;0.10;;;;;;;;;;4177399;28;20167;-48
2022/10/20 04:05:30;;;;;;;0.20;0.10;;;;;;;;;;4178543;28;20136;-47
2022/10/20 04:07:31;;;;;;;0.00;0.00;;;;;;;;;;4185591;28;20056;-46
2022/10/20 04:09:33;;;;;;;0.10;0.10;;;;;;;;;;4186825;28;20048;-49
2022/10/20 04:11:34;;;;;;;0.28;0.00;;;;;;;;;;4182081;28;20057;-50
2022/10/20 04:13:36;;;;;;;0.13;0.10;;;;;;;;;;4193863;28;20106;-46
2022/10/20 04:15:37;;;;;;;0.10;0.10;;;;;;;;;;4188842;28;20053;-48
2022/10/20 04:17:39;;;;;;;0.17;0.10;;;;;;;;;;4178796;28;20060;-49
2022/10/20 04:19:40;;;;;;;0.15;0.10;;;;;;;;;;4180616;28;20445;-47
2022/10/20 04:21:41;;;;;;;0.10;0.10;;;;;;;;;;4194155;28;20488;-47
2022/10/20 04:23:43;;;;;;;0.00;0.00;;;;;;;;;;4192556;28;20059;-48
2022/10/20 04:25:47;;;;;;;0.10;0.10;;;;;;;;;;4182899;28;20064;-46
2022/10/20 04:27:48;;;;;;;0.10;0.10;;;;;;;;;;4182288;28;20103;-47
2022/10/20 04:29:50;;;;;;;0.10;0.10;;;;;;;;;;4182174;28;20115;-47
2022/10/20 04:31:51;;;;;;;0.10;0.10;;;;;;;;;;4186887;28;20060;-48
2022/10/20 04:33:52;;;;;;;0.25;0.13;;;;;;;;;;4190386;28;20122;-47
2022/10/20 04:36:12;;;;;;;0.20;0.10;;;;;;;;;;4182340;28;20098;-46
2022/10/20 04:38:13;;;;;;;0.00;0.00;;;;;;;;;;4185320;28;20052;-47
2022/10/20 04:40:14;;;;;;;0.30;0.20;;;;;;;;;;4192347;28;20061;-48
2022/10/20 04:42:17;;;;;;;0.00;0.00;;;;;;;;;;4182156;28;20416;-47
2022/10/20 04:44:18;;;;;;;0.00;0.00;;;;;;;;;;4194426;28;20052;-49
2022/10/20 04:46:19;;;;;;;0.10;0.10;;;;;;;;;;4194938;28;20110;-45
2022/10/20 04:48:21;;;;;;;0.75;0.15;;;;;;;;;;4181872;28;20049;-46
2022/10/20 04:50:23;;;;;;;0.10;0.10;;;;;;;;;;4189311;28;20053;-49
2022/10/20 04:52:36;;;;;;;0.28;0.10;;;;;;;;;;4197069;28;20292;-48
2022/10/20 04:54:37;;;;;;;0.35;0.00;;;;;;;;;;4196873;28;20060;-47
2022/10/20 04:56:38;;;;;;;0.10;0.10;;;;;;;;;;4187654;28;20052;-47
2022/10/20 04:58:39;;;;;;;0.15;0.15;;;;;;;;;;4180152;28;20053;-45
2022/10/20 05:00:41;;;;;;;0.10;0.10;;;;;;;;;;4191600;28;20454;-45
2022/10/20 05:02:42;;;;;;;0.10;0.10;;;;;;;;;;4194117;28;20469;-47
2022/10/20 05:04:44;;;;;;;0.40;0.20;;;;;;;;;;4183962;28;20448;-46
2022/10/20 05:06:46;;;;;;;0.68;0.10;;;;;;;;;;4187711;28;20056;-44
2022/10/20 05:08:50;;;;;;;0.17;0.17;;;;;;;;;;4178947;28;20060;-46
2022/10/20 05:10:51;;;;;;;0.22;0.10;;;;;;;;;;4192759;28;20045;-47
2022/10/20 05:12:53;;;;;;;0.10;0.10;;;;;;;;;;4194099;28;20135;-46
2022/10/20 05:14:54;;;;;;;0.10;0.10;;;;;;;;;;4179118;28;20061;-45
2022/10/20 05:16:56;;;;;;;0.45;0.10;;;;;;;;;;4178150;28;20262;-45
2022/10/20 05:18:57;;;;;;;0.20;0.10;;;;;;;;;;4178539;28;20435;-49
2022/10/20 05:20:58;;;;;;;0.40;0.10;;;;;;;;;;4179223;28;20107;-49
2022/10/20 05:22:59;;;;;;;0.30;0.10;;;;;;;;;;4179736;28;20057;-47
2022/10/20 05:25:00;;;;;;;0.38;0.10;;;;;;;;;;4178866;28;20087;-48
2022/10/20 05:27:02;;;;;;;1.10;0.10;;;;;;;;;;4179057;28;20131;-48
2022/10/20 05:29:05;;;;;;;0.50;0.10;;;;;;;;;;4178473;28;20110;-46
2022/10/20 05:31:07;;;;;;;0.20;0.10;;;;;;;;;;4179159;28;20091;-45
2022/10/20 05:33:09;;;;;;;0.10;0.10;;;;;;;;;;4179107;28;20060;-45
2022/10/20 05:35:11;;;;;;;0.70;0.20;;;;;;;;;;4177137;28;20146;-48
2022/10/20 05:37:13;;;;;;;1.40;0.10;;;;;;;;;;4177746;28;20048;-45
2022/10/20 05:39:14;;;;;;;0.20;0.10;;;;;;;;;;4190863;28;20059;-47
2022/10/20 05:41:17;;;;;;;0.60;0.20;;;;;;;;;;4180111;28;20052;-46
2022/10/20 05:43:19;;;;;;;0.10;0.10;;;;;;;;;;4183877;28;20153;-48
2022/10/20 05:45:20;;;;;;;0.57;0.25;;;;;;;;;;4178498;28;20424;-46
2022/10/20 05:47:22;;;;;;;0.50;0.30;;;;;;;;;;4184868;28;20095;-48
2022/10/20 05:49:23;;;;;;;0.77;0.20;;;;;;;;;;4187031;28;20485;-47
2022/10/20 05:51:28;;;;;;;0.20;0.20;;;;;;;;;;4185440;28;20507;-45
2022/10/20 05:53:29;;;;;;;0.30;0.20;;;;;;;;;;4179359;28;20138;-48
2022/10/20 05:55:31;;;;;;;0.10;0.10;;;;;;;;;;4190130;28;20057;-45
2022/10/20 05:57:32;;;;;;;0.75;0.30;;;;;;;;;;4184943;28;20106;-43
2022/10/20 05:59:34;;;;;;;0.10;0.10;;;;;;;;;;4181234;28;20089;-45
2022/10/20 06:01:47;;;;;;;0.50;0.20;;;;;;;;;;4184086;28;20052;-44
2022/10/20 06:03:50;;;;;;;0.30;0.20;;;;;;;;;;4187915;28;20060;-45
2022/10/20 06:05:56;;;;;;;0.30;0.20;;;;;;;;;;4188354;28;20056;-48
2022/10/20 06:07:58;;;;;;;0.10;0.10;;;;;;;;;;4192233;28;20815;-48
2022/10/20 06:09:59;;;;;;;0.20;0.20;;;;;;;;;;4198114;28;20149;-46
2022/10/20 06:12:00;;;;;;;1.42;0.10;;;;;;;;;;4190501;28;20056;-45
2022/10/20 06:14:01;;;;;;;0.73;0.30;;;;;;;;;;4174105;28;20134;-44
2022/10/20 06:16:13;;;;;;;0.20;0.20;;;;;;;;;;4187557;28;20112;-46
2022/10/20 06:18:14;;;;;;;0.50;0.28;;;;;;;;;;4181489;28;20098;-48
2022/10/20 06:20:16;;;;;;;0.43;0.30;;;;;;;;;;4180711;28;20685;-50
2022/10/20 06:22:17;;;;;;;0.85;0.40;;;;;;;;;;4187957;28;20473;-41
2022/10/20 06:24:19;;;;;;;0.25;0.13;;;;;;;;;;4177758;28;20086;-45
2022/10/20 06:26:22;;;;;;;0.50;0.30;;;;;;;;;;4181917;28;20053;-47
2022/10/20 06:28:23;;;;;;;0.30;0.30;;;;;;;;;;4179934;28;20052;-43
2022/10/20 06:30:25;;;;;;;1.55;0.20;;;;;;;;;;4183247;28;20052;-44
2022/10/20 06:32:26;;;;;;;0.50;0.15;;;;;;;;;;4185382;28;20220;-40
2022/10/20 06:34:27;;;;;;;0.52;0.20;;;;;;;;;;4177992;28;20194;-43
2022/10/20 06:36:29;;;;;;;0.35;0.20;;;;;;;;;;4182657;28;20451;-43
2022/10/20 06:38:31;;;;;;;3.08;0.40;;;;;;;;;;4181059;28;20056;-42
2022/10/20 06:40:32;;;;;;;2.05;0.20;;;;;;;;;;4180881;28;20056;-43
2022/10/20 06:42:34;;;;;;;0.35;0.20;;;;;;;;;;4181938;28;20072;-43
2022/10/20 06:44:35;;;;;;;0.50;0.20;;;;;;;;;;4178487;28;20056;-43
2022/10/20 06:46:36;;;;;;;0.10;0.10;;;;;;;;;;4178817;28;20104;-42
2022/10/20 06:48:38;;;;;;;1.75;0.22;;;;;;;;;;4180693;28;20044;-42
2022/10/20 06:50:39;;;;;;;0.50;0.30;;;;;;;;;;4178429;28;20369;-44
2022/10/20 06:52:41;;;;;;;0.20;0.20;;;;;;;;;;4175975;28;20099;-43
2022/10/20 06:54:42;;;;;;;0.22;0.15;;;;;;;;;;4172773;28;20759;-40
2022/10/20 06:56:44;;;;;;;1.55;0.40;;;;;;;;;;4171136;28;20094;-43
2022/10/20 06:58:47;;;;;;;1.92;0.20;;;;;;;;;;4171006;28;20661;-41
2022/10/20 07:01:00;;;;;;;0.28;0.17;;;;;;;;;;4162524;28;20228;-40
2022/10/20 07:03:01;;;;;;;2.20;0.35;;;;;;;;;;4151994;28;20059;-41
2022/10/20 07:05:03;;;;;;;0.55;0.28;;;;;;;;;;4168009;28;20417;-43
2022/10/20 07:07:04;;;;;;;0.28;0.20;;;;;;;;;;4173189;28;20105;-43
2022/10/20 07:09:07;;;;;;;3.40;0.30;;;;;;;;;;4170826;28;20060;-43
2022/10/20 07:11:11;;;;;;;0.68;0.20;;;;;;;;;;4173794;28;20513;-40
2022/10/20 07:13:13;;;;;;;2.20;0.20;;;;;;;;;;4160771;28;20468;-40
2022/10/20 07:15:14;;;;;;;0.38;0.13;;;;;;;;;;4168086;28;20060;-44
2022/10/20 07:17:15;;;;;;;0.35;0.13;;;;;;;;;;4162232;28;20798;-42
2022/10/20 07:19:17;;;;;;;0.88;0.25;;;;;;;;;;4167220;28;20071;-42
2022/10/20 07:21:20;;;;;;;0.43;0.20;;;;;;;;;;4172179;28;20577;-43
2022/10/20 07:23:22;;;;;;;0.30;0.13;;;;;;;;;;4171564;28;21064;-43
2022/10/20 07:25:23;;;;;;;2.53;0.10;;;;;;;;;;4171955;28;20106;-43
2022/10/20 07:27:25;;;;;;;0.30;0.20;;;;;;;;;;4167782;28;20076;-40
2022/10/20 07:29:26;;;;;;;0.40;0.10;;;;;;;;;;4166756;28;20105;-42
2022/10/20 07:31:36;;;;;;;0.10;0.10;;;;;;;;;;4171230;28;20061;-40
2022/10/20 07:33:37;;;;;;;0.22;0.13;;;;;;;;;;4169516;28;20139;-40
2022/10/20 07:35:39;;;;;;;0.63;0.20;;;;;;;;;;4171752;28;21301;-39
2022/10/20 07:37:40;;;;;;;2.83;0.30;;;;;;;;;;4151911;28;20047;-39
2022/10/20 07:39:42;;;;;;;2.63;0.20;;;;;;;;;;4158564;28;20091;-40
2022/10/20 07:41:46;;;;;;;1.30;0.30;;;;;;;;;;4155084;28;20464;-40
2022/10/20 07:43:47;;;;;;;1.80;0.30;;;;;;;;;;4165912;28;20638;-40
2022/10/20 07:45:48;;;;;;;0.13;0.10;;;;;;;;;;4163988;28;20462;-40
2022/10/20 07:47:50;;;;;;;0.40;0.20;;;;;;;;;;4175936;28;20142;-40
2022/10/20 07:49:51;;;;;;;1.35;0.20;;;;;;;;;;4161857;28;20052;-40
2022/10/20 07:51:53;;;;;;;1.45;0.30;;;;;;;;;;4171181;28;20500;-40
2022/10/20 07:54:06;;;;;;;0.77;0.25;;;;;;;;;;4167031;28;20146;-39
2022/10/20 07:56:07;;;;;;;0.68;0.20;;;;;;;;;;4165220;28;21277;-39
2022/10/20 07:58:09;;;;;;;0.47;0.10;;;;;;;;;;4170446;28;20048;-41
2022/10/20 08:00:11;;;;;;;0.17;0.17;;;;;;;;;;4157557;28;20109;-39
2022/10/20 08:02:14;;;;;;;1.95;0.40;;;;;;;;;;4163984;28;20052;-39
2022/10/20 08:04:16;;;;;;;2.17;0.28;;;;;;;;;;4165991;28;20627;-38
2022/10/20 08:06:17;;;;;;;0.95;0.20;;;;;;;;;;4168712;28;20499;-38
2022/10/20 08:08:18;;;;;;;1.65;0.70;;;;;;;;;;4170847;28;20562;-38
2022/10/20 08:10:20;;;;;;;0.55;0.25;;;;;;;;;;4165465;28;20057;-38
2022/10/20 08:12:21;;;;;;;0.10;0.10;;;;;;;;;;4169110;28;20057;-41
2022/10/20 08:14:25;;;;;;;0.30;0.20;;;;;;;;;;4170579;28;20443;-40
2022/10/20 08:16:26;;;;;;;0.30;0.20;;;;;;;;;;4164941;28;20194;-38
2022/10/20 08:18:28;;;;;;;1.27;0.10;;;;;;;;;;4178404;28;20693;-41
2022/10/20 08:20:31;;;;;;;0.90;0.22;;;;;;;;;;4173598;28;20048;-40
2022/10/20 08:22:32;;;;;;;1.80;0.20;;;;;;;;;;4178732;28;20140;-40
2022/10/20 08:24:33;;;;;;;1.85;0.20;;;;;;;;;;4176556;28;20051;-38
2022/10/20 08:26:35;;;;;;;1.85;0.40;;;;;;;;;;4168836;28;20496;-38
2022/10/20 08:28:36;;;;;;;0.20;0.20;;;;;;;;;;4168558;28;20056;-44
2022/10/20 08:30:38;;;;;;;0.98;0.32;;;;;;;;;;4149843;28;20060;-39
2022/10/20 08:32:39;;;;;;;1.60;0.28;;;;;;;;;;4158833;28;20109;-39
2022/10/20 08:34:41;;;;;;;0.82;0.20;;;;;;;;;;4173957;28;20106;-39
2022/10/20 08:36:42;;;;;;;1.45;0.20;;;;;;;;;;4171319;28;20511;-38
2022/10/20 08:38:43;;;;;;;0.13;0.13;;;;;;;;;;4160693;28;20098;-39
2022/10/20 08:40:45;;;;;;;0.30;0.20;;;;;;;;;;4175689;28;20053;-41
2022/10/20 08:42:47;;;;;;;1.33;0.20;;;;;;;;;;4174798;28;20056;-41
2022/10/20 08:44:49;;;;;;;1.55;0.25;;;;;;;;;;4166808;28;20067;-40
2022/10/20 08:46:50;;;;;;;0.98;0.30;;;;;;;;;;4170778;28;20056;-41
2022/10/20 08:48:51;;;;;;;0.88;0.30;;;;;;;;;;4167710;28;20048;-41
2022/10/20 08:50:53;;;;;;;0.10;0.10;;;;;;;;;;4183395;28;20083;-41
2022/10/20 08:52:57;;;;;;;0.50;0.10;;;;;;;;;;4155541;28;20057;-41
2022/10/20 08:54:58;;;;;;;1.55;0.32;;;;;;;;;;4164939;28;20053;-38
2022/10/20 08:57:01;;;;;;;0.57;0.25;;;;;;;;;;4142229;28;20134;-40
2022/10/20 08:59:02;;;;;;;0.73;0.30;;;;;;;;;;4154413;28;20492;-41
2022/10/20 09:01:20;;;;;;;0.57;0.20;;;;;;;;;;4158395;28;20407;-40
2022/10/20 09:03:26;;;;;;;0.93;0.20;;;;;;;;;;4154307;28;20048;-41
2022/10/20 09:05:30;;;;;;;2.00;0.68;;;;;;;;;;4166944;28;20173;-40
2022/10/20 09:07:33;;;;;;;0.55;0.20;;;;;;;;;;4175748;28;20057;-41
2022/10/20 09:09:35;;;;;;;3.30;0.30;;;;;;;;;;4171145;28;20522;-40
2022/10/20 09:11:39;;;;;;;0.60;0.20;;;;;;;;;;4173372;28;20061;-40
2022/10/20 09:13:40;;;;;;;2.05;0.20;;;;;;;;;;4159489;28;20083;-40
2022/10/20 09:15:41;;;;;;;0.45;0.28;;;;;;;;;;4164535;28;20066;-40
2022/10/20 09:18:08;;;;;;;0.40;0.20;;;;;;;;;;4175249;28;20181;-40
2022/10/20 09:20:22;;;;;;;2.13;0.40;;;;;;;;;;4164543;28;20143;-40
2022/10/20 09:22:25;;;;;;;0.50;0.25;;;;;;;;;;4169108;28;20056;-40
2022/10/20 09:24:28;;;;;;;2.17;0.30;;;;;;;;;;4181729;28;20060;-40
2022/10/20 09:26:52;;;;;;;0.57;0.50;;;;;;;;;;4171073;28;20106;-40
2022/10/20 09:29:04;;;;;;;0.20;0.20;;;;;;;;;;4177468;28;20049;-40
2022/10/20 09:31:38;;;;;;;1.80;0.32;;;;;;;;;;4162576;28;20059;-40
2022/10/20 09:33:40;;;;;;;2.20;0.20;;;;;;;;;;4161347;28;20535;-38
2022/10/20 09:35:46;;;;;;;0.65;0.30;;;;;;;;;;4181721;28;20109;-40
2022/10/20 09:37:53;;;;;;;0.45;0.30;;;;;;;;;;4167619;28;20130;-38
2022/10/20 09:39:57;;;;;;;0.95;0.32;;;;;;;;;;4168744;28;20056;-39
2022/10/20 09:42:01;;;;;;;0.90;0.30;;;;;;;;;;4176314;28;20109;-39
2022/10/20 09:44:07;;;;;;;0.20;0.17;;;;;;;;;;4164527;28;20053;-39
2022/10/20 09:46:10;;;;;;;0.60;0.22;;;;;;;;;;4171445;28;20094;-40
2022/10/20 09:48:23;;;;;;;0.47;0.28;;;;;;;;;;4181865;28;20048;-39
2022/10/20 09:50:37;;;;;;;2.78;0.50;;;;;;;;;;4163447;28;20550;-39
2022/10/20 09:52:46;;;;;;;2.15;0.35;;;;;;;;;;4169625;28;20114;-39
2022/10/20 09:54:49;;;;;;;1.83;0.30;;;;;;;;;;4165224;28;20060;-39
2022/10/20 09:56:51;;;;;;;1.48;0.22;;;;;;;;;;4173820;28;20060;-40
2022/10/20 09:58:53;;;;;;;1.27;0.20;;;;;;;;;;4166838;28;20056;-39
2022/10/20 10:01:06;;;;;;;0.25;0.20;;;;;;;;;;4161890;28;20067;-40
2022/10/20 10:03:13;;;;;;;0.17;0.10;;;;;;;;;;4169748;28;20060;-40
2022/10/20 10:05:18;;;;;;;0.50;0.20;;;;;;;;;;4160285;28;20100;-39
2022/10/20 10:07:26;;;;;;;0.95;0.52;;;;;;;;;;4158528;28;20079;-40
2022/10/20 10:09:35;;;;;;;0.60;0.20;;;;;;;;;;4173080;28;20053;-39
2022/10/20 10:12:01;;;;;;;2.63;0.28;;;;;;;;;;4172712;28;20220;-40
2022/10/20 10:14:03;;;;;;;1.75;0.35;;;;;;;;;;4179419;28;20156;-39
2022/10/20 10:16:07;;;;;;;0.80;0.25;;;;;;;;;;4186799;28;20052;-39
2022/10/20 10:18:14;;;;;;;0.20;0.20;;;;;;;;;;4177324;28;20063;-39
2022/10/20 10:20:15;;;;;;;1.38;0.20;;;;;;;;;;4182393;28;20113;-39
2022/10/20 10:22:16;;;;;;;1.50;0.40;;;;;;;;;;4179202;28;20063;-40
2022/10/20 10:24:35;;;;;;;0.40;0.15;;;;;;;;;;4181684;28;20058;-39
2022/10/20 10:26:38;;;;;;;0.30;0.15;;;;;;;;;;4184846;28;20060;-39
2022/10/20 10:28:40;;;;;;;0.45;0.20;;;;;;;;;;4175195;28;20052;-40
2022/10/20 10:30:41;;;;;;;0.95;0.20;;;;;;;;;;4164837;28;20131;-40
2022/10/20 10:32:44;;;;;;;0.22;0.15;;;;;;;;;;4174849;28;20051;-39
2022/10/20 10:35:04;;;;;;;1.00;0.30;;;;;;;;;;4198114;28;20765;-39
2022/10/20 10:37:05;;;;;;;0.65;0.20;;;;;;;;;;4190823;28;20059;-39
2022/10/20 10:39:12;;;;;;;0.40;0.30;;;;;;;;;;4161715;28;20057;-39
2022/10/20 10:41:26;;;;;;;0.43;0.20;;;;;;;;;;4183979;28;20408;-40
2022/10/20 10:43:47;;;;;;;0.43;0.20;;;;;;;;;;4163642;28;20305;-39
2022/10/20 10:45:51;;;;;;;0.40;0.22;;;;;;;;;;4173467;28;20170;-40
2022/10/20 10:48:22;;;;;;;0.85;0.40;;;;;;;;;;4169987;28;20118;-39
2022/10/20 10:50:24;;;;;;;0.30;0.22;;;;;;;;;;4164292;28;20091;-39
2022/10/20 10:52:53;;;;;;;0.63;0.20;;;;;;;;;;4166820;28;20122;-40
2022/10/20 10:55:14;;;;;;;;;;;;;;;;;;4159145;28;20052;-39
2022/10/20 10:57:28;;;;;;;0.70;0.17;;;;;;;;;;4154467;28;19928;-39
2022/10/20 10:59:34;;;;;;;0.90;0.38;;;;;;;;;;4152069;28;20596;-41
2022/10/20 11:01:50;;;;;;;2.38;0.30;;;;;;;;;;4163885;28;20129;-41
2022/10/20 11:04:04;;;;;;;0.85;0.30;;;;;;;;;;4155922;28;20133;-41
2022/10/20 11:06:29;;;;;;;0.90;0.20;;;;;;;;;;4160625;28;20053;-41
2022/10/20 11:08:55;;;;;;;0.40;0.30;;;;;;;;;;4166191;28;20743;-41
2022/10/20 11:11:25;;;;;;;0.77;0.25;;;;;;;;;;4164524;28;20067;-41
2022/10/20 11:13:42;;;;;;;0.38;0.20;;;;;;;;;;4167092;28;20415;-41
2022/10/20 11:16:07;;;;;;;0.30;0.20;;;;;;;;;;4158957;28;20768;-41
2022/10/20 11:18:27;;;;;;;0.28;0.28;;;;;;;;;;4170338;28;20056;-41
2022/10/20 11:20:43;;;;;;;0.30;0.30;;;;;;;;;;4172672;28;20056;-41
2022/10/20 11:23:09;;;;;;;0.30;0.20;;;;;;;;;;4167959;28;20569;-42
2022/10/20 11:25:31;;;;;;;0.68;0.30;;;;;;;;;;4180337;28;20052;-41
2022/10/20 11:27:34;;;;;;;0.40;0.10;;;;;;;;;;4169968;28;20118;-41
2022/10/20 11:29:40;;;;;;;2.63;0.20;;;;;;;;;;4178948;28;20139;-41
2022/10/20 11:31:56;;;;;;;0.25;0.15;;;;;;;;;;4175817;28;20055;-41
2022/10/20 11:34:08;;;;;;;0.88;0.20;;;;;;;;;;4175344;28;20125;-41
2022/10/20 11:36:20;;;;;;;0.43;0.32;;;;;;;;;;4171775;28;20094;-41
2022/10/20 11:38:30;;;;;;;0.45;0.28;;;;;;;;;;4169770;28;20510;-40
2022/10/20 11:40:38;;;;;;;0.55;0.20;;;;;;;;;;4169857;28;20055;-42
2022/10/20 11:42:43;;;;;;;0.93;0.50;;;;;;;;;;4178917;28;20126;-40
2022/10/20 11:44:46;;;;;;;0.50;0.20;;;;;;;;;;4149225;28;20052;-43
2022/10/20 11:46:51;;;;;;;0.40;0.20;;;;;;;;;;4165318;28;20385;-42
2022/10/20 11:48:54;;;;;;;2.25;0.30;;;;;;;;;;4171203;28;20053;-42
2022/10/20 11:51:16;;;;;;;2.25;0.57;;;;;;;;;;4169075;28;20055;-43
2022/10/20 11:53:30;;;;;;;2.03;0.30;;;;;;;;;;4177402;28;20055;-42
2022/10/20 11:55:34;;;;;;;2.17;0.30;;;;;;;;;;4173282;28;20056;-42
2022/10/20 11:57:39;;;;;;;2.20;0.40;;;;;;;;;;4175192;28;20055;-42
2022/10/20 12:00:00;;;;;;;0.98;0.43;;;;;;;;;;4167730;28;20154;-40
2022/10/20 12:02:35;;;;;;;2.08;0.30;;;;;;;;;;4170774;28;20725;-41
2022/10/20 12:05:03;;;;;;;0.50;0.20;;;;;;;;;;4165279;28;20052;-41
2022/10/20 12:07:23;;;;;;;0.40;0.30;;;;;;;;;;4127172;28;20099;-42
2022/10/20 12:09:38;;;;;;;0.50;0.20;;;;;;;;;;4163295;28;20056;-42
2022/10/20 12:11:57;;;;;;;1.55;0.38;;;;;;;;;;4163542;28;20052;-41
2022/10/20 12:14:37;;;;;;;3.70;0.30;;;;;;;;;;4165208;28;20689;-42
2022/10/20 12:16:50;;;;;;;1.50;0.35;;;;;;;;;;4155844;28;20462;-41
2022/10/20 12:19:21;;;;;;;1.95;0.52;;;;;;;;;;4168761;28;20443;-42
2022/10/20 12:21:59;;;;;;;1.73;0.30;;;;;;;;;;4143460;28;20074;-41
2022/10/20 12:24:02;;;;;;;0.45;0.20;;;;;;;;;;4173631;28;20601;-41
2022/10/20 12:26:03;;;;;;;1.08;0.20;;;;;;;;;;4167441;28;20213;-42
2022/10/20 12:28:31;;;;;;;0.75;0.22;;;;;;;;;;4182212;28;20109;-42
2022/10/20 12:30:38;;;;;;;1.63;0.20;;;;;;;;;;4164410;28;20067;-41
2022/10/20 12:32:51;;;;;;;0.30;0.13;;;;;;;;;;4169172;28;20064;-41